M88 weather

CLOSED Cornelia Fort Airpark
Nashville, Tennessee, United States

Public forecast

Using degrees Fahrenheit for public forecast. Weather courtesy of forecast.io.

Closest aviation weather report (METAR) to Cornelia Fort Airpark

Closest report is Nashville International Airport, 4.1 nm (7.6 km) SSE. Retrieved 2020/06/04 08:53 UTC (1 hour ago):

KBNA 040853Z 19004KT 10SM BKN085 BKN250 22/19 A2991 RMK AO2 SLP122 T02220189 53000

Closest aviation forecast (TAF) to Cornelia Fort Airpark

Closest forecast is Nashville International Airport, 4.1 nm (7.6 km) SSE. Retrieved 2020/06/04 06:22 UTC (4 hours ago):

TAF KBNA 040520Z 0406/0506 17005KT P6SM SCT250 FM042100 21009KT 6SM -TSRA BKN050CB FM050000 20005KT P6SM BKN250